Terminal Aerodrome Forecast
Issued by NWS

Home | Current Version | Previous Version | Graphics & Text | Print | Product List | Glossary On
Versions: 1 2 3 4 5 6 7 8 9 10 11 12 13 14 15 16 17 18 19 20 21 22 23 24 25
779
FTUS43 KABR 232320
TAFATY
TAF
KATY 232320Z 2400/2424 01012KT P6SM SCT018 BKN023 OVC045
     FM240200 36008KT P6SM BKN040
     FM241100 01004KT P6SM BKN015
     FM241300 VRB03KT P6SM BKN020
     FM241700 11005KT P6SM SCT035=

USA.gov is the U.S. government's official web portal to all federal, state and local government web resources and services.